sensor_id;sensor_type;location;lat;lon;timestamp;P1;durP1;ratioP1;P2;durP2;ratioP2
70946;SDS011;58605;48.700;8.760;2024-03-23T00:51:59;10.87;;;4.07;;
70946;SDS011;58605;48.700;8.760;2024-03-23T00:54:25;6.93;;;4.13;;
70946;SDS011;58605;48.700;8.760;2024-03-23T00:56:52;6.23;;;4.13;;
70946;SDS011;58605;48.700;8.760;2024-03-23T00:59:18;5.90;;;4.70;;
70946;SDS011;58605;48.700;8.760;2024-03-23T01:01:45;6.30;;;4.40;;
70946;SDS011;58605;48.700;8.760;2024-03-23T01:04:13;4.57;;;4.13;;
70946;SDS011;58605;48.700;8.760;2024-03-23T01:06:39;5.43;;;4.63;;
70946;SDS011;58605;48.700;8.760;2024-03-23T01:09:05;6.40;;;4.67;;
70946;SDS011;58605;48.700;8.760;2024-03-23T01:11:31;8.87;;;4.87;;
70946;SDS011;58605;48.700;8.760;2024-03-23T01:13:57;5.07;;;4.33;;
70946;SDS011;58605;48.700;8.760;2024-03-23T01:16:24;6.23;;;4.40;;
70946;SDS011;58605;48.700;8.760;2024-03-23T01:18:50;4.97;;;3.83;;
70946;SDS011;58605;48.700;8.760;2024-03-23T01:21:18;6.90;;;4.60;;
70946;SDS011;58605;48.700;8.760;2024-03-23T01:23:44;7.07;;;4.27;;
70946;SDS011;58605;48.700;8.760;2024-03-23T01:26:11;4.90;;;3.70;;
70946;SDS011;58605;48.700;8.760;2024-03-23T01:28:37;8.17;;;4.23;;
70946;SDS011;58605;48.700;8.760;2024-03-23T01:31:04;6.77;;;4.43;;
70946;SDS011;58605;48.700;8.760;2024-03-23T01:33:30;5.93;;;4.20;;
70946;SDS011;58605;48.700;8.760;2024-03-23T01:35:56;6.23;;;4.60;;
70946;SDS011;58605;48.700;8.760;2024-03-23T01:38:24;4.83;;;4.33;;
70946;SDS011;58605;48.700;8.760;2024-03-23T01:40:55;7.40;;;4.57;;
70946;SDS011;58605;48.700;8.760;2024-03-23T01:43:22;4.67;;;4.03;;
70946;SDS011;58605;48.700;8.760;2024-03-23T01:45:49;5.20;;;4.10;;
70946;SDS011;58605;48.700;8.760;2024-03-23T01:48:15;5.97;;;4.60;;
70946;SDS011;58605;48.700;8.760;2024-03-23T01:50:41;5.13;;;4.37;;
70946;SDS011;58605;48.700;8.760;2024-03-23T01:53:08;4.97;;;4.40;;
70946;SDS011;58605;48.700;8.760;2024-03-23T01:55:35;5.60;;;4.00;;
70946;SDS011;58605;48.700;8.760;2024-03-23T01:58:02;8.43;;;4.50;;
70946;SDS011;58605;48.700;8.760;2024-03-23T02:03:50;5.07;;;4.20;;
70946;SDS011;58605;48.700;8.760;2024-03-23T02:06:17;4.43;;;4.03;;
70946;SDS011;58605;48.700;8.760;2024-03-23T02:08:44;5.40;;;4.30;;
70946;SDS011;58605;48.700;8.760;2024-03-23T02:11:12;5.10;;;4.23;;
70946;SDS011;58605;48.700;8.760;2024-03-23T02:13:38;4.73;;;3.57;;
70946;SDS011;58605;48.700;8.760;2024-03-23T02:16:04;5.33;;;4.13;;
70946;SDS011;58605;48.700;8.760;2024-03-23T02:18:31;7.23;;;3.80;;
70946;SDS011;58605;48.700;8.760;2024-03-23T02:20:57;5.30;;;3.70;;
70946;SDS011;58605;48.700;8.760;2024-03-23T02:23:25;7.17;;;4.17;;
70946;SDS011;58605;48.700;8.760;2024-03-23T02:25:52;7.33;;;4.27;;
70946;SDS011;58605;48.700;8.760;2024-03-23T02:28:21;9.30;;;4.73;;
70946;SDS011;58605;48.700;8.760;2024-03-23T02:30:50;7.27;;;4.30;;
70946;SDS011;58605;48.700;8.760;2024-03-23T02:33:16;5.50;;;4.20;;
70946;SDS011;58605;48.700;8.760;2024-03-23T02:35:43;6.10;;;4.07;;
70946;SDS011;58605;48.700;8.760;2024-03-23T02:38:10;6.83;;;4.20;;
70946;SDS011;58605;48.700;8.760;2024-03-23T02:40:38;5.10;;;4.13;;
70946;SDS011;58605;48.700;8.760;2024-03-23T02:43:04;5.93;;;4.50;;
70946;SDS011;58605;48.700;8.760;2024-03-23T02:45:31;5.00;;;4.30;;
70946;SDS011;58605;48.700;8.760;2024-03-23T02:47:57;5.87;;;4.30;;
70946;SDS011;58605;48.700;8.760;2024-03-23T02:50:23;5.40;;;4.77;;
70946;SDS011;58605;48.700;8.760;2024-03-23T02:52:49;7.53;;;5.10;;
70946;SDS011;58605;48.700;8.760;2024-03-23T02:55:16;5.70;;;4.70;;
70946;SDS011;58605;48.700;8.760;2024-03-23T02:57:44;7.97;;;4.00;;
70946;SDS011;58605;48.700;8.760;2024-03-23T03:00:10;5.27;;;4.57;;
70946;SDS011;58605;48.700;8.760;2024-03-23T03:02:38;5.60;;;3.97;;
70946;SDS011;58605;48.700;8.760;2024-03-23T03:05:04;4.97;;;4.23;;
70946;SDS011;58605;48.700;8.760;2024-03-23T03:07:31;4.97;;;4.17;;
70946;SDS011;58605;48.700;8.760;2024-03-23T03:09:57;5.47;;;4.23;;
70946;SDS011;58605;48.700;8.760;2024-03-23T03:12:24;4.70;;;3.80;;
70946;SDS011;58605;48.700;8.760;2024-03-23T03:14:52;5.83;;;3.93;;
70946;SDS011;58605;48.700;8.760;2024-03-23T03:17:18;5.63;;;4.30;;
70946;SDS011;58605;48.700;8.760;2024-03-23T03:19:45;4.80;;;4.30;;
70946;SDS011;58605;48.700;8.760;2024-03-23T03:22:12;5.57;;;4.27;;
70946;SDS011;58605;48.700;8.760;2024-03-23T03:24:38;5.83;;;4.23;;
70946;SDS011;58605;48.700;8.760;2024-03-23T03:27:04;4.83;;;4.20;;
70946;SDS011;58605;48.700;8.760;2024-03-23T03:29:32;6.60;;;4.13;;
70946;SDS011;58605;48.700;8.760;2024-03-23T03:32:03;5.97;;;4.20;;
70946;SDS011;58605;48.700;8.760;2024-03-23T03:34:29;5.17;;;4.40;;
70946;SDS011;58605;48.700;8.760;2024-03-23T03:36:55;6.50;;;4.30;;
70946;SDS011;58605;48.700;8.760;2024-03-23T03:39:22;6.33;;;4.40;;
70946;SDS011;58605;48.700;8.760;2024-03-23T03:41:48;6.40;;;4.10;;
70946;SDS011;58605;48.700;8.760;2024-03-23T03:44:15;6.67;;;3.97;;
70946;SDS011;58605;48.700;8.760;2024-03-23T03:46:41;5.33;;;4.07;;
70946;SDS011;58605;48.700;8.760;2024-03-23T03:49:09;5.57;;;3.90;;
70946;SDS011;58605;48.700;8.760;2024-03-23T03:51:35;5.50;;;4.00;;
70946;SDS011;58605;48.700;8.760;2024-03-23T03:54:02;6.93;;;4.47;;
70946;SDS011;58605;48.700;8.760;2024-03-23T03:56:28;4.70;;;3.67;;
70946;SDS011;58605;48.700;8.760;2024-03-23T03:58:54;8.27;;;4.63;;
70946;SDS011;58605;48.700;8.760;2024-03-23T04:01:20;6.77;;;4.83;;
70946;SDS011;58605;48.700;8.760;2024-03-23T04:03:47;6.43;;;4.43;;
70946;SDS011;58605;48.700;8.760;2024-03-23T04:06:19;4.93;;;4.30;;
70946;SDS011;58605;48.700;8.760;2024-03-23T04:08:46;4.80;;;3.80;;
70946;SDS011;58605;48.700;8.760;2024-03-23T04:11:12;6.47;;;4.40;;
70946;SDS011;58605;48.700;8.760;2024-03-23T04:13:38;4.63;;;4.07;;
70946;SDS011;58605;48.700;8.760;2024-03-23T04:16:07;7.87;;;4.00;;
70946;SDS011;58605;48.700;8.760;2024-03-23T04:18:34;4.83;;;3.73;;
70946;SDS011;58605;48.700;8.760;2024-03-23T04:21:00;5.50;;;4.33;;
70946;SDS011;58605;48.700;8.760;2024-03-23T04:23:28;4.83;;;3.90;;
70946;SDS011;58605;48.700;8.760;2024-03-23T04:25:55;4.80;;;3.30;;
70946;SDS011;58605;48.700;8.760;2024-03-23T04:28:21;4.37;;;3.60;;
70946;SDS011;58605;48.700;8.760;2024-03-23T04:30:47;4.20;;;3.40;;
70946;SDS011;58605;48.700;8.760;2024-03-23T04:33:14;5.03;;;3.63;;
70946;SDS011;58605;48.700;8.760;2024-03-23T04:35:40;4.60;;;3.60;;
70946;SDS011;58605;48.700;8.760;2024-03-23T04:38:06;4.50;;;3.77;;
70946;SDS011;58605;48.700;8.760;2024-03-23T04:40:34;5.70;;;5.10;;
70946;SDS011;58605;48.700;8.760;2024-03-23T04:43:00;7.20;;;5.23;;
70946;SDS011;58605;48.700;8.760;2024-03-23T04:45:27;8.33;;;6.37;;
70946;SDS011;58605;48.700;8.760;2024-03-23T04:47:53;7.97;;;6.53;;
70946;SDS011;58605;48.700;8.760;2024-03-23T04:50:19;7.50;;;6.27;;
70946;SDS011;58605;48.700;8.760;2024-03-23T04:52:45;8.57;;;6.30;;
70946;SDS011;58605;48.700;8.760;2024-03-23T04:55:11;6.77;;;5.83;;
70946;SDS011;58605;48.700;8.760;2024-03-23T04:57:41;7.60;;;5.57;;
70946;SDS011;58605;48.700;8.760;2024-03-23T05:00:07;8.03;;;5.57;;
70946;SDS011;58605;48.700;8.760;2024-03-23T05:02:42;6.73;;;5.27;;
70946;SDS011;58605;48.700;8.760;2024-03-23T05:05:09;7.73;;;6.30;;
70946;SDS011;58605;48.700;8.760;2024-03-23T05:07:35;7.63;;;5.93;;
70946;SDS011;58605;48.700;8.760;2024-03-23T05:10:02;11.37;;;7.37;;
70946;SDS011;58605;48.700;8.760;2024-03-23T05:12:28;11.73;;;7.77;;
70946;SDS011;58605;48.700;8.760;2024-03-23T05:14:56;10.03;;;7.60;;
70946;SDS011;58605;48.700;8.760;2024-03-23T05:17:23;10.10;;;7.87;;
70946;SDS011;58605;48.700;8.760;2024-03-23T05:19:49;8.93;;;7.17;;
70946;SDS011;58605;48.700;8.760;2024-03-23T05:22:15;10.87;;;7.50;;
70946;SDS011;58605;48.700;8.760;2024-03-23T05:24:41;10.43;;;6.97;;
70946;SDS011;58605;48.700;8.760;2024-03-23T05:27:10;9.00;;;6.03;;
70946;SDS011;58605;48.700;8.760;2024-03-23T05:29:36;7.60;;;5.77;;
70946;SDS011;58605;48.700;8.760;2024-03-23T05:32:04;8.70;;;6.37;;
70946;SDS011;58605;48.700;8.760;2024-03-23T05:34:30;7.33;;;5.47;;
70946;SDS011;58605;48.700;8.760;2024-03-23T05:36:56;7.67;;;5.80;;
70946;SDS011;58605;48.700;8.760;2024-03-23T05:39:22;10.20;;;5.40;;
70946;SDS011;58605;48.700;8.760;2024-03-23T05:41:49;5.97;;;4.77;;
70946;SDS011;58605;48.700;8.760;2024-03-23T05:44:16;7.37;;;5.53;;
70946;SDS011;58605;48.700;8.760;2024-03-23T05:46:42;7.17;;;4.67;;
70946;SDS011;58605;48.700;8.760;2024-03-23T05:49:15;5.60;;;4.30;;
70946;SDS011;58605;48.700;8.760;2024-03-23T05:51:43;5.97;;;3.77;;
70946;SDS011;58605;48.700;8.760;2024-03-23T05:54:09;4.83;;;3.30;;
70946;SDS011;58605;48.700;8.760;2024-03-23T05:56:35;3.53;;;2.90;;
70946;SDS011;58605;48.700;8.760;2024-03-23T05:59:01;4.90;;;3.07;;
70946;SDS011;58605;48.700;8.760;2024-03-23T06:01:28;3.17;;;2.30;;
70946;SDS011;58605;48.700;8.760;2024-03-23T06:03:58;4.73;;;2.00;;
70946;SDS011;58605;48.700;8.760;2024-03-23T06:06:28;1.97;;;1.70;;
70946;SDS011;58605;48.700;8.760;2024-03-23T06:08:55;2.60;;;1.50;;
70946;SDS011;58605;48.700;8.760;2024-03-23T06:11:21;1.90;;;1.50;;
70946;SDS011;58605;48.700;8.760;2024-03-23T06:13:48;1.70;;;1.50;;
70946;SDS011;58605;48.700;8.760;2024-03-23T06:16:14;2.27;;;1.30;;
70946;SDS011;58605;48.700;8.760;2024-03-23T06:18:40;1.73;;;1.50;;
70946;SDS011;58605;48.700;8.760;2024-03-23T06:21:12;1.63;;;1.27;;
70946;SDS011;58605;48.700;8.760;2024-03-23T06:23:41;2.70;;;1.20;;
70946;SDS011;58605;48.700;8.760;2024-03-23T06:26:08;1.63;;;1.27;;
70946;SDS011;58605;48.700;8.760;2024-03-23T06:28:34;2.10;;;1.47;;
70946;SDS011;58605;48.700;8.760;2024-03-23T06:31:01;1.73;;;1.10;;
70946;SDS011;58605;48.700;8.760;2024-03-23T06:33:27;1.30;;;1.20;;
70946;SDS011;58605;48.700;8.760;2024-03-23T06:35:53;1.20;;;1.00;;
70946;SDS011;58605;48.700;8.760;2024-03-23T06:38:20;7.83;;;1.37;;
70946;SDS011;58605;48.700;8.760;2024-03-23T06:40:48;0.70;;;0.70;;
70946;SDS011;58605;48.700;8.760;2024-03-23T06:43:16;1.20;;;1.10;;
70946;SDS011;58605;48.700;8.760;2024-03-23T06:45:42;0.90;;;0.90;;
70946;SDS011;58605;48.700;8.760;2024-03-23T06:48:08;1.23;;;0.93;;
70946;SDS011;58605;48.700;8.760;2024-03-23T06:50:34;0.87;;;0.87;;
70946;SDS011;58605;48.700;8.760;2024-03-23T06:53:01;0.90;;;0.73;;
70946;SDS011;58605;48.700;8.760;2024-03-23T06:55:27;0.80;;;0.80;;
70946;SDS011;58605;48.700;8.760;2024-03-23T06:57:55;0.67;;;0.67;;
70946;SDS011;58605;48.700;8.760;2024-03-23T07:00:22;0.90;;;0.90;;
70946;SDS011;58605;48.700;8.760;2024-03-23T07:02:48;0.50;;;0.50;;
70946;SDS011;58605;48.700;8.760;2024-03-23T07:05:14;1.93;;;0.50;;
70946;SDS011;58605;48.700;8.760;2024-03-23T07:07:41;1.20;;;0.37;;
70946;SDS011;58605;48.700;8.760;2024-03-23T07:10:07;0.50;;;0.50;;
70946;SDS011;58605;48.700;8.760;2024-03-23T07:12:33;0.40;;;0.40;;
70946;SDS011;58605;48.700;8.760;2024-03-23T07:15:01;0.40;;;0.40;;
70946;SDS011;58605;48.700;8.760;2024-03-23T07:17:28;2.23;;;0.60;;
70946;SDS011;58605;48.700;8.760;2024-03-23T07:19:54;0.50;;;0.50;;
70946;SDS011;58605;48.700;8.760;2024-03-23T07:22:20;0.50;;;0.50;;
70946;SDS011;58605;48.700;8.760;2024-03-23T07:24:47;1.80;;;0.60;;
70946;SDS011;58605;48.700;8.760;2024-03-23T07:27:13;0.57;;;0.57;;
70946;SDS011;58605;48.700;8.760;2024-03-23T07:29:39;0.80;;;0.80;;
70946;SDS011;58605;48.700;8.760;2024-03-23T07:32:07;0.60;;;0.60;;
70946;SDS011;58605;48.700;8.760;2024-03-23T07:34:33;0.60;;;0.50;;
70946;SDS011;58605;48.700;8.760;2024-03-23T07:37:00;0.70;;;0.70;;
70946;SDS011;58605;48.700;8.760;2024-03-23T07:39:26;1.43;;;0.50;;
70946;SDS011;58605;48.700;8.760;2024-03-23T07:41:53;0.63;;;0.60;;
70946;SDS011;58605;48.700;8.760;2024-03-23T07:44:19;0.47;;;0.47;;
70946;SDS011;58605;48.700;8.760;2024-03-23T07:46:45;0.73;;;0.60;;
70946;SDS011;58605;48.700;8.760;2024-03-23T07:49:13;0.50;;;0.50;;
70946;SDS011;58605;48.700;8.760;2024-03-23T07:51:39;1.20;;;0.53;;
70946;SDS011;58605;48.700;8.760;2024-03-23T07:54:06;0.53;;;0.53;;
70946;SDS011;58605;48.700;8.760;2024-03-23T07:56:32;0.73;;;0.70;;
70946;SDS011;58605;48.700;8.760;2024-03-23T07:58:59;0.60;;;0.60;;
70946;SDS011;58605;48.700;8.760;2024-03-23T08:01:25;0.70;;;0.70;;
70946;SDS011;58605;48.700;8.760;2024-03-23T08:03:51;0.80;;;0.80;;
70946;SDS011;58605;48.700;8.760;2024-03-23T08:06:20;1.17;;;1.10;;
70946;SDS011;58605;48.700;8.760;2024-03-23T08:08:51;1.00;;;1.00;;
70946;SDS011;58605;48.700;8.760;2024-03-23T08:11:28;1.97;;;0.90;;
70946;SDS011;58605;48.700;8.760;2024-03-23T08:13:54;1.50;;;1.10;;
70946;SDS011;58605;48.700;8.760;2024-03-23T08:16:21;1.40;;;0.90;;
70946;SDS011;58605;48.700;8.760;2024-03-23T08:18:48;3.60;;;1.30;;
70946;SDS011;58605;48.700;8.760;2024-03-23T08:21:16;1.70;;;1.30;;
70946;SDS011;58605;48.700;8.760;2024-03-23T08:23:44;2.47;;;1.53;;
70946;SDS011;58605;48.700;8.760;2024-03-23T08:26:10;3.13;;;1.90;;
70946;SDS011;58605;48.700;8.760;2024-03-23T08:28:38;1.63;;;1.53;;
70946;SDS011;58605;48.700;8.760;2024-03-23T08:31:11;5.13;;;1.80;;
70946;SDS011;58605;48.700;8.760;2024-03-23T08:33:38;7.40;;;2.17;;
70946;SDS011;58605;48.700;8.760;2024-03-23T08:36:05;3.03;;;1.80;;
70946;SDS011;58605;48.700;8.760;2024-03-23T08:38:32;4.27;;;1.97;;
70946;SDS011;58605;48.700;8.760;2024-03-23T08:41:01;3.03;;;1.70;;
70946;SDS011;58605;48.700;8.760;2024-03-23T08:43:28;2.57;;;1.90;;
70946;SDS011;58605;48.700;8.760;2024-03-23T08:46:02;3.70;;;2.53;;
70946;SDS011;58605;48.700;8.760;2024-03-23T08:48:29;4.30;;;2.63;;
70946;SDS011;58605;48.700;8.760;2024-03-23T08:50:58;3.93;;;2.40;;
70946;SDS011;58605;48.700;8.760;2024-03-23T08:53:28;4.10;;;2.80;;
70946;SDS011;58605;48.700;8.760;2024-03-23T08:55:55;4.47;;;2.60;;
70946;SDS011;58605;48.700;8.760;2024-03-23T08:58:23;5.93;;;3.00;;
70946;SDS011;58605;48.700;8.760;2024-03-23T09:00:50;5.53;;;3.10;;
70946;SDS011;58605;48.700;8.760;2024-03-23T09:03:16;6.60;;;3.20;;
70946;SDS011;58605;48.700;8.760;2024-03-23T09:05:43;5.80;;;3.30;;
70946;SDS011;58605;48.700;8.760;2024-03-23T09:08:09;7.33;;;3.70;;
70946;SDS011;58605;48.700;8.760;2024-03-23T09:10:38;8.13;;;3.93;;
70946;SDS011;58605;48.700;8.760;2024-03-23T09:13:04;6.93;;;3.50;;
70946;SDS011;58605;48.700;8.760;2024-03-23T09:15:32;11.07;;;4.30;;
70946;SDS011;58605;48.700;8.760;2024-03-23T09:17:59;6.50;;;3.40;;
70946;SDS011;58605;48.700;8.760;2024-03-23T09:20:26;5.07;;;3.63;;
70946;SDS011;58605;48.700;8.760;2024-03-23T09:22:52;6.77;;;4.37;;
70946;SDS011;58605;48.700;8.760;2024-03-23T09:25:24;5.03;;;3.00;;
70946;SDS011;58605;48.700;8.760;2024-03-23T09:27:50;8.50;;;3.93;;
70946;SDS011;58605;48.700;8.760;2024-03-23T09:30:17;5.67;;;2.73;;
70946;SDS011;58605;48.700;8.760;2024-03-23T09:32:45;4.50;;;3.33;;
70946;SDS011;58605;48.700;8.760;2024-03-23T09:35:11;9.27;;;3.53;;
70946;SDS011;58605;48.700;8.760;2024-03-23T09:37:38;7.47;;;3.00;;
70946;SDS011;58605;48.700;8.760;2024-03-23T09:40:08;6.00;;;3.47;;
70946;SDS011;58605;48.700;8.760;2024-03-23T09:42:36;6.23;;;3.37;;
70946;SDS011;58605;48.700;8.760;2024-03-23T09:45:03;7.00;;;3.30;;
70946;SDS011;58605;48.700;8.760;2024-03-23T09:47:32;6.13;;;3.33;;
70946;SDS011;58605;48.700;8.760;2024-03-23T09:50:00;11.90;;;3.83;;
70946;SDS011;58605;48.700;8.760;2024-03-23T09:52:27;9.30;;;4.27;;
70946;SDS011;58605;48.700;8.760;2024-03-23T09:54:53;6.13;;;3.23;;
70946;SDS011;58605;48.700;8.760;2024-03-23T09:57:19;7.17;;;3.90;;
70946;SDS011;58605;48.700;8.760;2024-03-23T09:59:45;7.20;;;3.70;;
70946;SDS011;58605;48.700;8.760;2024-03-23T10:02:19;5.10;;;3.43;;
70946;SDS011;58605;48.700;8.760;2024-03-23T10:04:47;7.60;;;4.17;;
70946;SDS011;58605;48.700;8.760;2024-03-23T10:07:15;5.23;;;3.80;;
70946;SDS011;58605;48.700;8.760;2024-03-23T10:09:43;5.57;;;3.33;;
70946;SDS011;58605;48.700;8.760;2024-03-23T10:12:11;11.93;;;3.60;;
70946;SDS011;58605;48.700;8.760;2024-03-23T10:14:39;6.23;;;3.23;;
70946;SDS011;58605;48.700;8.760;2024-03-23T10:17:12;7.63;;;4.20;;
70946;SDS011;58605;48.700;8.760;2024-03-23T10:19:39;4.93;;;3.47;;
70946;SDS011;58605;48.700;8.760;2024-03-23T10:22:07;7.03;;;3.63;;
70946;SDS011;58605;48.700;8.760;2024-03-23T10:24:36;8.70;;;3.87;;
70946;SDS011;58605;48.700;8.760;2024-03-23T10:27:02;8.00;;;3.57;;
70946;SDS011;58605;48.700;8.760;2024-03-23T10:29:28;5.13;;;3.53;;
70946;SDS011;58605;48.700;8.760;2024-03-23T10:31:57;5.30;;;2.70;;
70946;SDS011;58605;48.700;8.760;2024-03-23T10:34:33;3.67;;;2.27;;
70946;SDS011;58605;48.700;8.760;2024-03-23T10:37:00;3.77;;;2.20;;
70946;SDS011;58605;48.700;8.760;2024-03-23T10:39:29;3.33;;;2.40;;
70946;SDS011;58605;48.700;8.760;2024-03-23T10:41:59;2.67;;;2.43;;
70946;SDS011;58605;48.700;8.760;2024-03-23T10:44:27;3.83;;;2.20;;
70946;SDS011;58605;48.700;8.760;2024-03-23T10:46:56;2.73;;;1.87;;
70946;SDS011;58605;48.700;8.760;2024-03-23T10:49:26;4.60;;;2.00;;
70946;SDS011;58605;48.700;8.760;2024-03-23T10:51:55;3.93;;;2.23;;
70946;SDS011;58605;48.700;8.760;2024-03-23T10:54:24;4.83;;;2.77;;
70946;SDS011;58605;48.700;8.760;2024-03-23T10:56:51;4.97;;;2.00;;
70946;SDS011;58605;48.700;8.760;2024-03-23T10:59:22;3.67;;;2.00;;
70946;SDS011;58605;48.700;8.760;2024-03-23T11:01:55;5.23;;;2.23;;
70946;SDS011;58605;48.700;8.760;2024-03-23T11:04:32;3.03;;;1.90;;
70946;SDS011;58605;48.700;8.760;2024-03-23T11:06:59;3.67;;;2.27;;
70946;SDS011;58605;48.700;8.760;2024-03-23T11:09:41;2.60;;;2.00;;
70946;SDS011;58605;48.700;8.760;2024-03-23T11:12:26;4.03;;;1.60;;
70946;SDS011;58605;48.700;8.760;2024-03-23T11:14:56;3.57;;;1.80;;
70946;SDS011;58605;48.700;8.760;2024-03-23T11:17:24;2.37;;;1.50;;
70946;SDS011;58605;48.700;8.760;2024-03-23T11:19:55;8.47;;;2.23;;
70946;SDS011;58605;48.700;8.760;2024-03-23T11:22:37;3.37;;;2.37;;
70946;SDS011;58605;48.700;8.760;2024-03-23T11:25:12;4.87;;;2.03;;
70946;SDS011;58605;48.700;8.760;2024-03-23T11:27:39;6.83;;;1.83;;
70946;SDS011;58605;48.700;8.760;2024-03-23T11:30:14;3.47;;;1.80;;
70946;SDS011;58605;48.700;8.760;2024-03-23T11:32:42;5.37;;;2.43;;
70946;SDS011;58605;48.700;8.760;2024-03-23T11:35:09;3.17;;;1.60;;
70946;SDS011;58605;48.700;8.760;2024-03-23T11:37:35;4.87;;;2.17;;
70946;SDS011;58605;48.700;8.760;2024-03-23T11:40:16;3.40;;;2.10;;
70946;SDS011;58605;48.700;8.760;2024-03-23T11:42:43;6.07;;;2.27;;
70946;SDS011;58605;48.700;8.760;2024-03-23T11:45:09;5.73;;;1.83;;
70946;SDS011;58605;48.700;8.760;2024-03-23T11:47:38;6.13;;;2.13;;
70946;SDS011;58605;48.700;8.760;2024-03-23T11:50:04;7.17;;;2.37;;
70946;SDS011;58605;48.700;8.760;2024-03-23T11:52:31;5.53;;;2.10;;
70946;SDS011;58605;48.700;8.760;2024-03-23T11:55:02;3.97;;;1.60;;
70946;SDS011;58605;48.700;8.760;2024-03-23T11:57:29;5.47;;;1.87;;
70946;SDS011;58605;48.700;8.760;2024-03-23T11:59:56;6.23;;;2.37;;
70946;SDS011;58605;48.700;8.760;2024-03-23T12:02:22;6.00;;;2.00;;
70946;SDS011;58605;48.700;8.760;2024-03-23T12:04:50;3.30;;;1.47;;
70946;SDS011;58605;48.700;8.760;2024-03-23T12:07:16;2.97;;;1.93;;
70946;SDS011;58605;48.700;8.760;2024-03-23T12:09:44;4.03;;;1.87;;
70946;SDS011;58605;48.700;8.760;2024-03-23T12:12:16;4.83;;;2.00;;
70946;SDS011;58605;48.700;8.760;2024-03-23T12:14:43;5.07;;;2.53;;
70946;SDS011;58605;48.700;8.760;2024-03-23T12:17:10;4.73;;;2.80;;
70946;SDS011;58605;48.700;8.760;2024-03-23T12:19:37;9.60;;;3.37;;
70946;SDS011;58605;48.700;8.760;2024-03-23T12:22:05;5.70;;;2.57;;
70946;SDS011;58605;48.700;8.760;2024-03-23T12:24:32;4.60;;;2.23;;
70946;SDS011;58605;48.700;8.760;2024-03-23T12:27:01;11.47;;;3.73;;
70946;SDS011;58605;48.700;8.760;2024-03-23T12:29:28;6.73;;;2.80;;
70946;SDS011;58605;48.700;8.760;2024-03-23T12:31:56;6.90;;;3.40;;
70946;SDS011;58605;48.700;8.760;2024-03-23T12:34:24;11.13;;;3.60;;
70946;SDS011;58605;48.700;8.760;2024-03-23T12:36:50;9.77;;;2.77;;
70946;SDS011;58605;48.700;8.760;2024-03-23T12:39:18;10.07;;;3.03;;
70946;SDS011;58605;48.700;8.760;2024-03-23T12:41:46;7.83;;;3.20;;
70946;SDS011;58605;48.700;8.760;2024-03-23T12:44:12;7.30;;;3.00;;
70946;SDS011;58605;48.700;8.760;2024-03-23T12:46:38;11.73;;;2.57;;
70946;SDS011;58605;48.700;8.760;2024-03-23T12:49:05;8.07;;;2.77;;
70946;SDS011;58605;48.700;8.760;2024-03-23T12:51:31;5.90;;;2.23;;
70946;SDS011;58605;48.700;8.760;2024-03-23T12:53:57;5.63;;;1.80;;
70946;SDS011;58605;48.700;8.760;2024-03-23T12:56:25;2.17;;;1.43;;
70946;SDS011;58605;48.700;8.760;2024-03-23T12:58:53;3.30;;;1.60;;
70946;SDS011;58605;48.700;8.760;2024-03-23T13:01:20;5.27;;;1.60;;
70946;SDS011;58605;48.700;8.760;2024-03-23T13:03:47;2.87;;;1.60;;
70946;SDS011;58605;48.700;8.760;2024-03-23T13:06:14;5.40;;;2.03;;
70946;SDS011;58605;48.700;8.760;2024-03-23T13:08:40;2.47;;;1.67;;
70946;SDS011;58605;48.700;8.760;2024-03-23T13:11:07;4.87;;;1.90;;
70946;SDS011;58605;48.700;8.760;2024-03-23T13:13:38;5.40;;;1.57;;
70946;SDS011;58605;48.700;8.760;2024-03-23T13:16:04;2.60;;;1.73;;
70946;SDS011;58605;48.700;8.760;2024-03-23T13:18:31;3.73;;;1.80;;
70946;SDS011;58605;48.700;8.760;2024-03-23T13:20:57;5.80;;;1.47;;
70946;SDS011;58605;48.700;8.760;2024-03-23T13:23:23;5.20;;;1.67;;
70946;SDS011;58605;48.700;8.760;2024-03-23T13:25:50;4.87;;;1.80;;
70946;SDS011;58605;48.700;8.760;2024-03-23T13:28:18;4.57;;;2.20;;
70946;SDS011;58605;48.700;8.760;2024-03-23T13:30:51;3.47;;;1.93;;
70946;SDS011;58605;48.700;8.760;2024-03-23T13:33:17;3.13;;;1.60;;
70946;SDS011;58605;48.700;8.760;2024-03-23T13:35:52;1.70;;;1.30;;
70946;SDS011;58605;48.700;8.760;2024-03-23T13:38:20;2.93;;;1.60;;
70946;SDS011;58605;48.700;8.760;2024-03-23T13:40:50;3.50;;;1.57;;
70946;SDS011;58605;48.700;8.760;2024-03-23T13:43:17;4.73;;;1.70;;
70946;SDS011;58605;48.700;8.760;2024-03-23T13:45:43;3.10;;;2.00;;
70946;SDS011;58605;48.700;8.760;2024-03-23T13:48:11;2.70;;;1.67;;
70946;SDS011;58605;48.700;8.760;2024-03-23T13:50:37;3.87;;;1.60;;
70946;SDS011;58605;48.700;8.760;2024-03-23T13:53:03;3.07;;;1.60;;
70946;SDS011;58605;48.700;8.760;2024-03-23T13:55:29;4.43;;;1.73;;
70946;SDS011;58605;48.700;8.760;2024-03-23T13:57:56;4.30;;;1.57;;
70946;SDS011;58605;48.700;8.760;2024-03-23T14:00:23;1.90;;;1.30;;
70946;SDS011;58605;48.700;8.760;2024-03-23T14:02:49;1.53;;;1.30;;
70946;SDS011;58605;48.700;8.760;2024-03-23T14:05:17;6.07;;;1.50;;
70946;SDS011;58605;48.700;8.760;2024-03-23T14:07:43;3.10;;;1.97;;
70946;SDS011;58605;48.700;8.760;2024-03-23T14:10:10;2.93;;;1.67;;
70946;SDS011;58605;48.700;8.760;2024-03-23T14:12:36;3.83;;;1.73;;
70946;SDS011;58605;48.700;8.760;2024-03-23T14:15:05;3.80;;;2.13;;
70946;SDS011;58605;48.700;8.760;2024-03-23T14:17:31;2.40;;;1.67;;
70946;SDS011;58605;48.700;8.760;2024-03-23T14:19:58;6.80;;;2.20;;
70946;SDS011;58605;48.700;8.760;2024-03-23T14:22:28;5.47;;;2.03;;
70946;SDS011;58605;48.700;8.760;2024-03-23T14:24:54;2.87;;;1.50;;
70946;SDS011;58605;48.700;8.760;2024-03-23T14:27:20;3.07;;;1.60;;
70946;SDS011;58605;48.700;8.760;2024-03-23T14:29:49;5.57;;;1.87;;
70946;SDS011;58605;48.700;8.760;2024-03-23T14:32:15;4.33;;;1.50;;
70946;SDS011;58605;48.700;8.760;2024-03-23T14:34:41;5.67;;;1.87;;
70946;SDS011;58605;48.700;8.760;2024-03-23T14:37:07;3.67;;;1.67;;
70946;SDS011;58605;48.700;8.760;2024-03-23T14:39:35;6.43;;;1.70;;
70946;SDS011;58605;48.700;8.760;2024-03-23T14:42:04;3.70;;;1.60;;
70946;SDS011;58605;48.700;8.760;2024-03-23T14:44:33;5.13;;;1.63;;
70946;SDS011;58605;48.700;8.760;2024-03-23T14:46:59;4.17;;;1.47;;
70946;SDS011;58605;48.700;8.760;2024-03-23T14:49:25;4.67;;;1.60;;
70946;SDS011;58605;48.700;8.760;2024-03-23T14:51:51;3.03;;;1.40;;
70946;SDS011;58605;48.700;8.760;2024-03-23T14:54:17;1.93;;;1.40;;
70946;SDS011;58605;48.700;8.760;2024-03-23T14:56:45;3.63;;;1.47;;
70946;SDS011;58605;48.700;8.760;2024-03-23T14:59:12;5.10;;;1.60;;
70946;SDS011;58605;48.700;8.760;2024-03-23T15:01:38;2.87;;;1.40;;
70946;SDS011;58605;48.700;8.760;2024-03-23T15:04:05;6.30;;;1.60;;
70946;SDS011;58605;48.700;8.760;2024-03-23T15:06:31;2.17;;;1.30;;
70946;SDS011;58605;48.700;8.760;2024-03-23T15:08:58;5.23;;;1.63;;
70946;SDS011;58605;48.700;8.760;2024-03-23T15:11:24;2.00;;;1.43;;
70946;SDS011;58605;48.700;8.760;2024-03-23T15:13:52;2.60;;;1.13;;
70946;SDS011;58605;48.700;8.760;2024-03-23T15:16:26;2.40;;;1.30;;
70946;SDS011;58605;48.700;8.760;2024-03-23T15:18:52;2.17;;;1.63;;
70946;SDS011;58605;48.700;8.760;2024-03-23T15:21:18;1.90;;;1.10;;
70946;SDS011;58605;48.700;8.760;2024-03-23T15:23:47;1.23;;;1.03;;
70946;SDS011;58605;48.700;8.760;2024-03-23T15:26:13;3.03;;;1.10;;
70946;SDS011;58605;48.700;8.760;2024-03-23T15:28:47;1.30;;;1.00;;
70946;SDS011;58605;48.700;8.760;2024-03-23T15:31:24;2.93;;;1.10;;
70946;SDS011;58605;48.700;8.760;2024-03-23T15:33:51;2.73;;;1.27;;
70946;SDS011;58605;48.700;8.760;2024-03-23T15:36:17;1.33;;;1.20;;
70946;SDS011;58605;48.700;8.760;2024-03-23T15:38:43;3.60;;;1.37;;
70946;SDS011;58605;48.700;8.760;2024-03-23T15:41:10;3.03;;;1.40;;
70946;SDS011;58605;48.700;8.760;2024-03-23T15:43:36;1.53;;;1.27;;